Time;durP1;ratioP1;P1;durP2;ratioP2;P2;SDS_P1;SDS_P2;PMS_P1;PMS_P2;Temp;Humidity;BMP_temperature;BMP_pressure;BME280_temperature;BME280_humidity;BME280_pressure;Samples;Min_cycle;Max_cycle;Signal;HPM_P1;HPM_P2
2022/07/21 00:00:26;;;;;;;15.83;11.77;;;19.20;99.90;;;;;;5094276;28;20232;-63
2022/07/21 00:02:53;;;;;;;15.33;11.13;;;19.20;99.90;;;;;;5094444;28;20232;-63
2022/07/21 00:05:20;;;;;;;15.40;10.03;;;19.10;99.90;;;;;;5094217;28;20200;-63
2022/07/21 00:07:48;;;;;;;13.20;10.23;;;19.00;99.90;;;;;;5094123;28;20633;-63
2022/07/21 00:10:16;;;;;;;12.67;9.30;;;18.90;99.90;;;;;;5094685;28;20368;-63
2022/07/21 00:12:43;;;;;;;13.27;8.43;;;18.90;99.90;;;;;;5093890;28;20210;-63
2022/07/21 00:15:11;;;;;;;10.93;8.13;;;18.80;99.90;;;;;;5094063;28;20586;-63
2022/07/21 00:17:38;;;;;;;10.97;8.53;;;18.70;99.90;;;;;;5093833;28;20253;-63
2022/07/21 00:20:06;;;;;;;10.93;8.03;;;18.70;99.90;;;;;;5094106;28;20775;-63
2022/07/21 00:22:33;;;;;;;15.90;9.57;;;18.70;99.90;;;;;;5094078;28;20242;-66
2022/07/21 00:25:01;;;;;;;11.30;9.37;;;18.70;99.90;;;;;;5094002;28;20257;-63
2022/07/21 00:27:28;;;;;;;13.03;9.60;;;18.70;99.90;;;;;;5093761;28;20215;-63
2022/07/21 00:29:55;;;;;;;13.00;10.37;;;18.40;99.90;;;;;;5093801;28;20221;-63
2022/07/21 00:32:22;;;;;;;14.77;10.53;;;18.40;99.90;;;;;;5093741;28;20262;-63
2022/07/21 00:34:48;;;;;;;12.70;10.37;;;18.40;99.90;;;;;;5094196;28;20200;-64
2022/07/21 00:37:15;;;;;;;15.50;11.13;;;18.40;99.90;;;;;;5093634;28;20209;-63
2022/07/21 00:39:42;;;;;;;16.27;11.30;;;18.40;99.90;;;;;;5093570;28;20624;-63
2022/07/21 00:42:21;;;;;;;12.20;10.90;;;18.40;99.90;;;;;;5093879;28;20208;-63
2022/07/21 00:44:48;;;;;;;15.37;11.70;;;18.40;99.90;;;;;;5094199;28;20326;-64
2022/07/21 00:47:14;;;;;;;15.07;10.93;;;18.30;99.90;;;;;;5094066;28;20212;-64
2022/07/21 00:49:42;;;;;;;12.63;10.43;;;18.20;99.90;;;;;;5094105;28;20228;-64
2022/07/21 00:52:09;;;;;;;16.00;11.07;;;18.20;99.90;;;;;;5093800;28;20772;-64
2022/07/21 00:54:35;;;;;;;14.80;11.67;;;18.30;99.90;;;;;;5097766;28;20200;-64
2022/07/21 00:57:03;;;;;;;13.67;11.30;;;18.30;99.90;;;;;;5095718;28;20211;-64
2022/07/21 00:59:31;;;;;;;15.20;11.83;;;18.40;99.90;;;;;;5094310;28;20224;-63
2022/07/21 01:01:58;;;;;;;14.50;10.70;;;18.40;99.90;;;;;;5092993;28;20997;-63
2022/07/21 01:04:26;;;;;;;15.43;12.13;;;18.40;99.90;;;;;;5093244;28;20228;-63
2022/07/21 01:06:54;;;;;;;16.50;12.67;;;18.40;99.90;;;;;;5093056;28;20208;-63
2022/07/21 01:09:20;;;;;;;17.73;13.30;;;18.40;99.90;;;;;;5093006;28;20228;-63
2022/07/21 01:11:47;;;;;;;20.27;14.23;;;18.30;99.90;;;;;;5093121;28;20200;-63
2022/07/21 01:14:14;;;;;;;20.30;13.40;;;18.20;99.90;;;;;;5092678;28;20735;-63
2022/07/21 01:16:43;;;;;;;25.57;14.23;;;18.20;99.90;;;;;;5092615;28;20690;-63
2022/07/21 01:19:10;;;;;;;19.90;14.40;;;18.20;99.90;;;;;;5092722;28;20239;-63
2022/07/21 01:21:40;;;;;;;20.27;13.67;;;18.10;99.90;;;;;;5092836;28;20693;-63
2022/07/21 01:24:08;;;;;;;20.20;13.80;;;18.20;99.90;;;;;;5092577;28;20897;-63
2022/07/21 01:26:41;;;;;;;15.10;13.20;;;18.20;99.90;;;;;;5092509;28;20261;-63
2022/07/21 01:29:09;;;;;;;17.17;12.17;;;18.20;99.90;;;;;;5093085;28;20228;-63
2022/07/21 01:31:36;;;;;;;17.43;13.00;;;18.20;99.90;;;;;;5092586;28;20244;-63
2022/07/21 01:34:03;;;;;;;16.50;12.97;;;18.20;99.90;;;;;;5092814;28;20222;-63
2022/07/21 01:36:30;;;;;;;17.83;13.87;;;18.10;99.90;;;;;;5092004;28;20727;-63
2022/07/21 01:41:43;;;;;;;21.70;14.83;;;18.00;99.90;;;;;;5092522;28;20223;-63
2022/07/21 01:44:12;;;;;;;21.07;14.43;;;18.00;99.90;;;;;;5092572;28;20235;-63
2022/07/21 01:46:43;;;;;;;19.27;14.23;;;17.90;99.90;;;;;;5092406;28;20204;-63
2022/07/21 01:49:11;;;;;;;26.53;14.73;;;17.90;99.90;;;;;;5092081;28;20228;-63
2022/07/21 01:51:38;;;;;;;19.47;14.17;;;17.90;99.90;;;;;;5092199;28;20629;-63
2022/07/21 01:54:07;;;;;;;19.90;14.77;;;17.90;99.90;;;;;;5092607;28;20212;-64
2022/07/21 01:56:35;;;;;;;23.63;14.30;;;17.90;99.90;;;;;;5092126;28;20675;-63
2022/07/21 01:59:02;;;;;;;16.23;13.77;;;17.80;99.90;;;;;;5092061;28;20220;-63
2022/07/21 02:01:30;;;;;;;19.97;13.83;;;17.80;99.90;;;;;;5092356;28;20588;-63
2022/07/21 02:03:58;;;;;;;22.73;14.07;;;17.80;99.90;;;;;;5092110;28;20265;-63
2022/07/21 02:06:25;;;;;;;20.23;13.17;;;17.70;99.90;;;;;;5092052;28;20289;-63
2022/07/21 02:08:52;;;;;;;19.43;13.33;;;17.70;99.90;;;;;;5092096;28;20224;-63
2022/07/21 02:11:20;;;;;;;19.33;12.60;;;17.70;99.90;;;;;;5092303;28;20256;-63
2022/07/21 02:13:48;;;;;;;20.47;12.17;;;17.70;99.90;;;;;;5092119;28;20245;-63
2022/07/21 02:16:14;;;;;;;15.43;10.73;;;17.60;99.90;;;;;;5091674;28;20207;-63
2022/07/21 02:18:42;;;;;;;15.73;10.20;;;17.70;99.90;;;;;;5091847;28;20731;-63
2022/07/21 02:21:09;;;;;;;12.10;9.10;;;17.60;99.90;;;;;;5091960;28;20215;-63
2022/07/21 02:23:36;;;;;;;18.57;10.07;;;17.60;99.90;;;;;;5092214;28;20341;-63
2022/07/21 02:26:03;;;;;;;12.00;8.43;;;17.60;99.90;;;;;;5091680;28;20614;-63
2022/07/21 02:28:31;;;;;;;12.37;8.30;;;17.60;99.90;;;;;;5091997;28;20666;-63
2022/07/21 02:30:58;;;;;;;11.00;7.57;;;17.50;99.90;;;;;;5092306;28;20253;-63
2022/07/21 02:33:24;;;;;;;12.07;8.17;;;17.50;99.90;;;;;;5091994;28;20212;-63
2022/07/21 02:35:51;;;;;;;13.47;8.37;;;17.50;99.90;;;;;;5092108;28;20265;-63
2022/07/21 02:38:18;;;;;;;11.10;8.30;;;17.40;99.90;;;;;;5091636;28;20208;-63
2022/07/21 02:40:45;;;;;;;14.97;8.60;;;17.50;99.90;;;;;;5091901;28;20228;-63
2022/07/21 02:43:11;;;;;;;13.00;8.53;;;17.40;99.90;;;;;;5091726;28;20667;-63
2022/07/21 02:45:41;;;;;;;16.37;9.40;;;17.40;99.90;;;;;;5091690;28;20224;-63
2022/07/21 02:48:10;;;;;;;11.17;9.10;;;17.40;99.90;;;;;;5091570;28;20277;-63
2022/07/21 02:50:39;;;;;;;13.40;9.73;;;17.30;99.90;;;;;;5091678;28;20224;-63
2022/07/21 02:53:08;;;;;;;15.43;10.47;;;17.40;99.90;;;;;;5091667;28;20232;-63
2022/07/21 02:55:35;;;;;;;17.10;10.57;;;17.40;99.90;;;;;;5091621;28;20208;-63
2022/07/21 02:58:08;;;;;;;13.23;9.67;;;17.30;99.90;;;;;;5091411;28;20208;-63
2022/07/21 03:00:36;;;;;;;12.47;9.80;;;17.30;99.90;;;;;;5091184;28;20297;-63
2022/07/21 03:03:04;;;;;;;17.10;9.67;;;17.30;99.90;;;;;;5095202;28;20200;-63
2022/07/21 03:05:32;;;;;;;12.93;9.63;;;17.30;99.90;;;;;;5095382;28;20228;-63
2022/07/21 03:08:00;;;;;;;13.50;9.87;;;17.40;99.90;;;;;;5095160;28;20208;-63
2022/07/21 03:10:26;;;;;;;14.83;9.47;;;17.30;99.90;;;;;;5095181;28;20224;-63
2022/07/21 03:12:53;;;;;;;14.60;10.30;;;17.40;99.90;;;;;;5095304;28;20675;-63
2022/07/21 03:15:20;;;;;;;18.37;10.70;;;17.30;99.90;;;;;;5095617;28;20253;-63
2022/07/21 03:17:47;;;;;;;13.90;10.30;;;17.30;99.90;;;;;;5095013;28;20200;-65
2022/07/21 03:20:15;;;;;;;15.63;10.53;;;17.40;99.90;;;;;;5095113;28;20286;-65
2022/07/21 03:22:42;;;;;;;15.23;10.40;;;17.30;99.90;;;;;;5095025;28;20212;-65
2022/07/21 03:25:09;;;;;;;18.33;11.73;;;17.30;99.90;;;;;;5095369;28;20246;-63
2022/07/21 03:27:36;;;;;;;18.57;11.67;;;17.30;99.90;;;;;;5094439;28;20208;-63
2022/07/21 03:30:06;;;;;;;16.00;11.60;;;17.30;99.90;;;;;;5095257;28;20255;-63
2022/07/21 03:32:33;;;;;;;21.73;12.63;;;17.30;99.90;;;;;;5094960;28;20234;-63
2022/07/21 03:35:00;;;;;;;18.20;13.00;;;17.20;99.90;;;;;;5095118;28;20211;-63
2022/07/21 03:37:28;;;;;;;15.77;12.10;;;17.20;99.90;;;;;;5094567;28;20262;-63
2022/07/21 03:39:55;;;;;;;16.63;12.27;;;17.20;99.90;;;;;;5094245;28;20680;-63
2022/07/21 03:42:22;;;;;;;20.77;11.57;;;17.20;99.90;;;;;;5095103;28;20204;-63
2022/07/21 03:44:49;;;;;;;15.90;10.93;;;17.20;99.90;;;;;;5094788;28;20273;-63
2022/07/21 03:47:16;;;;;;;21.10;12.20;;;17.20;99.90;;;;;;5094802;28;20268;-63
2022/07/21 03:49:43;;;;;;;14.23;10.73;;;17.20;99.90;;;;;;5094389;28;20273;-63
2022/07/21 03:52:09;;;;;;;14.00;10.13;;;17.20;99.90;;;;;;5094650;28;20204;-63
2022/07/21 03:54:37;;;;;;;15.60;10.87;;;17.20;99.90;;;;;;5094404;28;20200;-64
2022/07/21 03:57:04;;;;;;;13.33;10.33;;;17.10;99.90;;;;;;5094188;28;20212;-63
2022/07/21 03:59:31;;;;;;;15.13;10.80;;;17.10;99.90;;;;;;5094396;28;20767;-63
2022/07/21 04:01:57;;;;;;;15.73;11.13;;;17.10;99.90;;;;;;5094447;28;20602;-63
2022/07/21 04:04:24;;;;;;;16.83;10.23;;;17.10;99.90;;;;;;5094392;28;20906;-63
2022/07/21 04:06:51;;;;;;;13.67;10.63;;;17.10;99.90;;;;;;5093819;28;20242;-64
2022/07/21 04:09:17;;;;;;;12.40;10.00;;;17.10;99.90;;;;;;5094126;28;20250;-63
2022/07/21 04:11:46;;;;;;;14.40;10.50;;;17.10;99.90;;;;;;5094384;28;20291;-63
2022/07/21 04:14:12;;;;;;;16.37;9.97;;;17.10;99.90;;;;;;5094065;28;20205;-63
2022/07/21 04:16:39;;;;;;;13.80;10.53;;;17.10;99.90;;;;;;5093818;28;20200;-64
2022/07/21 04:19:06;;;;;;;16.90;10.93;;;17.10;99.90;;;;;;5094050;28;20236;-63
2022/07/21 04:21:32;;;;;;;16.73;10.87;;;17.10;99.90;;;;;;5093974;28;20209;-63
2022/07/21 04:23:59;;;;;;;15.33;11.07;;;17.10;99.90;;;;;;5093777;28;20612;-63
2022/07/21 04:26:27;;;;;;;15.80;11.70;;;17.00;99.90;;;;;;5093862;28;20583;-63
2022/07/21 04:28:55;;;;;;;17.37;11.93;;;17.10;99.90;;;;;;5093800;28;20220;-63
2022/07/21 04:31:22;;;;;;;20.77;13.23;;;17.10;99.90;;;;;;5093826;28;20211;-63
2022/07/21 04:33:49;;;;;;;20.90;13.63;;;17.10;99.90;;;;;;5093516;28;20261;-63
2022/07/21 04:36:15;;;;;;;24.67;14.40;;;17.10;99.90;;;;;;5093302;28;20276;-61
2022/07/21 04:38:42;;;;;;;25.63;14.47;;;17.20;99.90;;;;;;5093857;28;20277;-61
2022/07/21 04:41:08;;;;;;;23.40;14.57;;;17.30;99.90;;;;;;5094189;28;20271;-61
2022/07/21 04:43:35;;;;;;;30.53;16.60;;;17.30;99.90;;;;;;5094574;28;20216;-61
2022/07/21 04:46:03;;;;;;;28.87;17.53;;;17.40;99.90;;;;;;5093191;28;20756;-60
2022/07/21 04:48:30;;;;;;;30.37;17.80;;;17.50;99.90;;;;;;5093514;28;20629;-63
2022/07/21 04:50:57;;;;;;;27.50;16.83;;;17.60;99.90;;;;;;5093122;28;20200;-63
2022/07/21 04:53:24;;;;;;;29.40;18.43;;;17.80;99.90;;;;;;5093768;28;20204;-62
2022/07/21 04:55:51;;;;;;;26.77;17.87;;;17.70;99.90;;;;;;5093514;28;20204;-61
2022/07/21 04:58:17;;;;;;;27.57;18.63;;;17.80;99.90;;;;;;5093394;28;20215;-61
2022/07/21 05:00:44;;;;;;;24.20;17.17;;;17.80;99.90;;;;;;5093531;28;20232;-62
2022/07/21 05:03:13;;;;;;;24.20;16.60;;;17.80;99.90;;;;;;5108818;28;20199;-60
2022/07/21 05:05:40;;;;;;;27.03;18.53;;;17.90;99.90;;;;;;5112764;28;20227;-61
2022/07/21 05:08:06;;;;;;;23.43;16.97;;;17.90;99.90;;;;;;5112694;28;20215;-61
2022/07/21 05:10:33;;;;;;;23.50;17.17;;;17.90;99.90;;;;;;5113472;28;20569;-62
2022/07/21 05:13:00;;;;;;;24.70;18.33;;;17.90;99.90;;;;;;5113119;28;20207;-62
2022/07/21 05:15:27;;;;;;;23.60;18.27;;;17.80;99.90;;;;;;5113323;28;20200;-62
2022/07/21 05:17:53;;;;;;;26.00;18.60;;;17.90;99.90;;;;;;5113142;28;20211;-61
2022/07/21 05:20:21;;;;;;;23.97;17.13;;;17.90;99.90;;;;;;5112990;28;20246;-62
2022/07/21 05:22:48;;;;;;;25.00;18.50;;;18.00;99.90;;;;;;5113384;28;20264;-62
2022/07/21 05:25:14;;;;;;;22.97;18.30;;;17.90;99.90;;;;;;5112063;28;20253;-61
2022/07/21 05:27:41;;;;;;;28.03;18.73;;;18.00;99.90;;;;;;5113141;28;20264;-64
2022/07/21 05:30:09;;;;;;;25.23;18.70;;;17.90;99.90;;;;;;5112829;28;20228;-65
2022/07/21 05:32:36;;;;;;;25.20;18.73;;;17.90;99.90;;;;;;5112643;28;20215;-61
2022/07/21 05:35:08;;;;;;;25.73;19.20;;;17.90;99.90;;;;;;5102961;28;20200;-61
2022/07/21 05:37:36;;;;;;;28.13;19.07;;;17.90;99.90;;;;;;5111958;28;20200;-63
2022/07/21 05:40:04;;;;;;;26.03;19.10;;;17.90;99.90;;;;;;5112831;28;20223;-63
2022/07/21 05:42:32;;;;;;;26.80;21.13;;;18.00;99.90;;;;;;5111992;27;20253;-64
2022/07/21 05:45:00;;;;;;;28.97;20.40;;;17.90;99.90;;;;;;5112127;28;20219;-66
2022/07/21 05:47:29;;;;;;;29.03;20.27;;;18.00;99.90;;;;;;5112440;28;20207;-67
2022/07/21 05:49:56;;;;;;;26.53;20.37;;;18.10;99.90;;;;;;5111647;28;20235;-66
2022/07/21 05:52:23;;;;;;;25.90;20.03;;;18.10;99.90;;;;;;5112231;28;20286;-65
2022/07/21 05:54:51;;;;;;;32.20;20.80;;;18.10;99.90;;;;;;5111471;28;20200;-64
2022/07/21 05:57:18;;;;;;;26.57;19.43;;;18.20;99.90;;;;;;5111626;28;20191;-62
2022/07/21 05:59:46;;;;;;;23.27;18.93;;;18.30;99.90;;;;;;5111697;28;20739;-61
2022/07/21 06:02:13;;;;;;;27.17;19.63;;;18.30;99.90;;;;;;5111863;28;20210;-65
2022/07/21 06:04:40;;;;;;;26.67;19.87;;;18.20;99.90;;;;;;5111457;28;20231;-64
2022/07/21 06:07:07;;;;;;;25.97;19.83;;;18.20;99.90;;;;;;5111349;28;20200;-64
2022/07/21 06:09:34;;;;;;;25.23;19.37;;;18.30;99.90;;;;;;5111915;28;20690;-64
2022/07/21 06:12:03;;;;;;;26.33;18.67;;;18.30;99.90;;;;;;5110389;28;20208;-63
2022/07/21 06:14:29;;;;;;;22.43;18.03;;;18.30;99.90;;;;;;5111361;28;20214;-63
2022/07/21 06:16:56;;;;;;;23.70;19.80;;;18.30;99.90;;;;;;5111279;28;20231;-62
2022/07/21 06:19:23;;;;;;;26.30;19.67;;;18.40;99.90;;;;;;5111310;28;20234;-62
2022/07/21 06:21:51;;;;;;;23.50;18.83;;;18.40;99.90;;;;;;5111611;28;20203;-62
2022/07/21 06:24:19;;;;;;;24.30;19.33;;;18.40;99.90;;;;;;5111154;28;20188;-61
2022/07/21 06:26:46;;;;;;;24.10;19.13;;;18.50;99.90;;;;;;5110766;28;20229;-63
2022/07/21 06:29:14;;;;;;;24.27;18.47;;;18.40;99.90;;;;;;5111636;28;20264;-65
2022/07/21 06:31:41;;;;;;;30.33;19.50;;;18.40;99.90;;;;;;5111469;28;20343;-65
2022/07/21 06:34:08;;;;;;;27.43;19.37;;;18.40;99.90;;;;;;5111616;28;20587;-66
2022/07/21 06:36:34;;;;;;;21.90;18.83;;;18.40;99.90;;;;;;5112881;28;20202;-64
2022/07/21 06:39:01;;;;;;;24.37;19.73;;;18.50;99.90;;;;;;5116255;28;20223;-62
2022/07/21 06:41:28;;;;;;;24.20;19.00;;;18.50;99.90;;;;;;5115585;28;20212;-64
2022/07/21 06:43:55;;;;;;;21.07;17.27;;;18.60;99.90;;;;;;5116032;28;20207;-65
2022/07/21 06:46:23;;;;;;;22.33;19.80;;;18.70;99.90;;;;;;5115100;28;20280;-62
2022/07/21 06:48:49;;;;;;;20.57;18.27;;;18.80;99.90;;;;;;5115197;27;20223;-63
2022/07/21 06:51:17;;;;;;;23.20;18.57;;;18.80;99.90;;;;;;5115567;28;20264;-64
2022/07/21 06:53:44;;;;;;;23.60;16.47;;;18.80;99.90;;;;;;5114771;27;20203;-65
2022/07/21 06:56:11;;;;;;;19.40;16.80;;;18.90;99.90;;;;;;5115086;28;20203;-63
2022/07/21 06:58:37;;;;;;;19.00;16.73;;;18.80;99.90;;;;;;5115336;28;20223;-63
2022/07/21 07:01:04;;;;;;;19.33;16.67;;;18.80;99.90;;;;;;5115032;28;20207;-65
2022/07/21 07:03:33;;;;;;;19.77;16.97;;;18.90;99.90;;;;;;5115248;28;20211;-65
2022/07/21 07:06:00;;;;;;;21.37;15.30;;;19.00;99.90;;;;;;5114270;28;20280;-65
2022/07/21 07:08:27;;;;;;;19.03;15.20;;;19.10;99.90;;;;;;5115042;28;20261;-64
2022/07/21 07:10:53;;;;;;;17.87;15.47;;;19.10;99.90;;;;;;5115222;28;20597;-63
2022/07/21 07:13:20;;;;;;;18.70;14.87;;;19.20;99.90;;;;;;5114935;28;20673;-63
2022/07/21 07:15:47;;;;;;;17.77;15.00;;;19.20;99.90;;;;;;5114922;28;20518;-62
2022/07/21 07:18:13;;;;;;;21.13;15.27;;;19.40;99.90;;;;;;5114332;28;20253;-61
2022/07/21 07:20:41;;;;;;;15.90;14.27;;;19.50;99.90;;;;;;5115079;28;20280;-65
2022/07/21 07:23:08;;;;;;;18.03;13.00;;;19.70;99.90;;;;;;5114349;28;20215;-65
2022/07/21 07:25:35;;;;;;;13.97;12.47;;;19.90;99.90;;;;;;5114849;28;20227;-62
2022/07/21 07:28:02;;;;;;;12.70;10.40;;;20.00;99.90;;;;;;5113919;28;20652;-62
2022/07/21 07:30:29;;;;;;;14.33;11.27;;;20.00;99.90;;;;;;5114592;28;20227;-62
2022/07/21 07:32:55;;;;;;;11.57;10.07;;;19.90;99.90;;;;;;5115109;28;20207;-62
2022/07/21 07:35:22;;;;;;;15.43;10.30;;;20.00;99.90;;;;;;5113932;28;20251;-62
2022/07/21 07:37:50;;;;;;;16.70;13.40;;;20.00;99.90;;;;;;5114493;28;20725;-62
2022/07/21 07:40:19;;;;;;;12.00;8.97;;;20.20;99.90;;;;;;5114499;28;20285;-62
2022/07/21 07:42:47;;;;;;;11.37;8.67;;;20.50;99.90;;;;;;5114372;28;20208;-62
2022/07/21 07:45:14;;;;;;;13.73;7.60;;;20.90;99.90;;;;;;5114260;28;20220;-61
2022/07/21 07:47:42;;;;;;;12.23;6.90;;;20.90;99.90;;;;;;5113083;28;20215;-61
2022/07/21 07:50:11;;;;;;;10.50;7.17;;;20.90;99.90;;;;;;5114132;28;20231;-61
2022/07/21 07:52:39;;;;;;;9.23;6.77;;;21.10;99.90;;;;;;5114144;28;20207;-62
2022/07/21 07:55:10;;;;;;;10.33;7.17;;;21.20;99.90;;;;;;5114170;28;20211;-61
2022/07/21 07:57:37;;;;;;;11.47;7.77;;;21.20;99.90;;;;;;5113979;28;20210;-61
2022/07/21 08:00:07;;;;;;;9.83;6.87;;;21.30;99.90;;;;;;5113708;28;20228;-61
2022/07/21 08:02:33;;;;;;;11.37;6.97;;;21.50;99.90;;;;;;5113946;28;20577;-61
2022/07/21 08:05:00;;;;;;;10.20;7.07;;;21.70;99.90;;;;;;5113727;28;20215;-62
2022/07/21 08:07:27;;;;;;;11.87;6.90;;;21.40;99.90;;;;;;5114317;28;20222;-62
2022/07/21 08:09:53;;;;;;;8.53;7.10;;;21.30;99.90;;;;;;5114145;28;20232;-62
2022/07/21 08:12:21;;;;;;;9.13;6.80;;;21.40;99.90;;;;;;5113748;27;20264;-62
2022/07/21 08:14:48;;;;;;;10.77;7.43;;;21.60;99.90;;;;;;5113705;28;20207;-62
2022/07/21 08:17:16;;;;;;;12.27;7.17;;;21.80;99.90;;;;;;5112949;28;20571;-62
2022/07/21 08:19:43;;;;;;;9.80;7.00;;;22.00;99.90;;;;;;5113700;28;20242;-62
2022/07/21 08:22:09;;;;;;;7.93;6.30;;;22.10;99.90;;;;;;5113632;27;20798;-62
2022/07/21 08:24:36;;;;;;;8.30;6.50;;;22.00;97.50;;;;;;5114037;28;20230;-62
2022/07/21 08:27:03;;;;;;;10.50;7.27;;;22.20;99.90;;;;;;5114104;28;20204;-62
2022/07/21 08:29:31;;;;;;;7.87;6.83;;;22.20;96.40;;;;;;5113869;28;20578;-62
2022/07/21 08:31:58;;;;;;;9.23;7.53;;;22.20;99.90;;;;;;5113442;27;20738;-62
2022/07/21 08:34:25;;;;;;;10.30;7.57;;;21.90;99.90;;;;;;5113252;28;20204;-63
2022/07/21 08:36:51;;;;;;;9.27;6.57;;;21.90;99.90;;;;;;5113172;28;20721;-65
2022/07/21 08:39:18;;;;;;;7.43;6.53;;;21.90;99.90;;;;;;5113383;28;20583;-65
2022/07/21 08:41:45;;;;;;;7.87;6.67;;;21.90;94.50;;;;;;5113591;28;20215;-64
2022/07/21 08:44:12;;;;;;;8.83;6.40;;;21.90;69.60;;;;;;5113271;27;20199;-66
2022/07/21 08:46:42;;;;;;;10.53;6.33;;;21.80;74.90;;;;;;5112559;28;20235;-66
2022/07/21 08:49:10;;;;;;;8.40;6.07;;;21.80;97.90;;;;;;5113282;28;20300;-63
2022/07/21 08:51:38;;;;;;;9.20;6.30;;;21.80;71.40;;;;;;5112991;28;20625;-63
2022/07/21 08:54:05;;;;;;;8.53;6.63;;;22.00;69.50;;;;;;5112790;28;20214;-64
2022/07/21 08:56:32;;;;;;;8.10;7.30;;;22.10;92.50;;;;;;5112439;28;20290;-63
2022/07/21 08:58:59;;;;;;;11.50;7.40;;;22.10;84.80;;;;;;5111405;28;20725;-62
2022/07/21 09:01:26;;;;;;;11.17;7.03;;;22.10;95.10;;;;;;5113176;28;20212;-61
2022/07/21 09:03:55;;;;;;;13.23;7.70;;;21.90;95.40;;;;;;5112556;28;20261;-61
2022/07/21 09:06:21;;;;;;;8.27;7.47;;;22.10;97.20;;;;;;5112253;28;20235;-60
2022/07/21 09:08:50;;;;;;;9.17;7.37;;;21.90;92.00;;;;;;5112773;28;20235;-64
2022/07/21 09:11:21;;;;;;;8.20;7.07;;;22.00;92.80;;;;;;5112555;28;20204;-63
2022/07/21 09:13:52;;;;;;;8.03;5.90;;;22.10;98.60;;;;;;5112993;28;20212;-62
2022/07/21 09:16:36;;;;;;;5.90;4.67;;;22.30;91.60;;;;;;5112059;28;20199;-61
2022/07/21 09:19:06;;;;;;;8.70;5.13;;;22.50;75.30;;;;;;5112635;28;20231;-62
2022/07/21 09:21:34;;;;;;;6.23;4.60;;;22.50;27.30;;;;;;5112332;28;20204;-62
2022/07/21 09:24:15;;;;;;;8.97;4.60;;;22.40;21.70;;;;;;5112632;28;20204;-60
2022/07/21 09:27:07;;;;;;;6.23;4.57;;;22.30;10.00;;;;;;5111948;28;20223;-60
2022/07/21 09:29:37;;;;;;;9.30;4.87;;;22.20;1.00;;;;;;5112651;28;20228;-65
2022/07/21 09:32:16;;;;;;;5.97;4.43;;;22.10;1.00;;;;;;5112340;28;20207;-61
2022/07/21 09:34:45;;;;;;;6.73;5.27;;;22.00;1.00;;;;;;5112091;28;20260;-62
2022/07/21 09:37:11;;;;;;;7.50;5.17;;;21.80;1.00;;;;;;5112075;27;20199;-61
2022/07/21 09:39:42;;;;;;;9.43;5.30;;;21.80;1.00;;;;;;5111779;28;20231;-64
2022/07/21 09:42:16;;;;;;;8.73;4.70;;;21.90;1.00;;;;;;5110392;28;20208;-63
2022/07/21 09:44:45;;;;;;;7.60;4.73;;;21.80;1.00;;;;;;5110581;28;20615;-61
2022/07/21 09:47:14;;;;;;;8.47;4.90;;;21.90;1.00;;;;;;5111904;28;20640;-64
2022/07/21 09:49:41;;;;;;;8.57;4.63;;;22.10;1.00;;;;;;5112190;28;20228;-63
2022/07/21 09:52:29;;;;;;;7.73;5.33;;;22.20;1.00;;;;;;5111937;28;20236;-63
2022/07/21 09:54:57;;;;;;;6.43;5.10;;;22.10;99.90;;;;;;5111653;28;20202;-62
2022/07/21 09:57:23;;;;;;;5.83;4.87;;;22.00;99.90;;;;;;5111457;28;20203;-63
2022/07/21 09:59:51;;;;;;;6.33;5.30;;;22.00;99.90;;;;;;5112289;28;20664;-64
2022/07/21 10:02:21;;;;;;;9.37;5.73;;;22.10;99.90;;;;;;5111819;28;20644;-66
2022/07/21 10:04:56;;;;;;;6.27;5.40;;;22.10;99.90;;;;;;5111622;28;20632;-66
2022/07/21 10:07:25;;;;;;;7.53;5.77;;;22.00;99.90;;;;;;5111566;27;20219;-66
2022/07/21 10:09:52;;;;;;;7.93;5.37;;;22.00;99.90;;;;;;5111199;28;20301;-64
2022/07/21 10:12:19;;;;;;;7.53;5.33;;;22.00;21.80;;;;;;5111972;28;20215;-64
2022/07/21 10:14:47;;;;;;;6.43;5.53;;;21.80;99.90;;;;;;5111453;28;20212;-64
2022/07/21 10:17:14;;;;;;;6.90;5.93;;;21.80;68.70;;;;;;5111595;28;20631;-64
2022/07/21 10:20:01;;;;;;;7.30;6.00;;;21.80;99.90;;;;;;5111809;28;20231;-64
2022/07/21 10:22:49;;;;;;;9.63;6.20;;;21.70;1.00;;;;;;5111867;28;20216;-64
2022/07/21 10:25:16;;;;;;;11.67;6.00;;;21.70;1.00;;;;;;5111415;28;20203;-63
2022/07/21 10:28:18;;;;;;;9.87;6.53;;;21.80;49.50;;;;;;5111071;28;20227;-64
2022/07/21 10:30:47;;;;;;;8.57;6.50;;;22.00;1.00;;;;;;5112106;28;20223;-62
2022/07/21 10:33:16;;;;;;;8.27;6.03;;;22.10;1.00;;;;;;5111562;28;20211;-60
2022/07/21 10:35:44;;;;;;;9.30;6.03;;;22.30;54.90;;;;;;5111560;28;20199;-60
2022/07/21 10:38:28;;;;;;;7.37;6.07;;;22.30;99.90;;;;;;5111722;28;20257;-60
2022/07/21 10:40:56;;;;;;;7.83;5.83;;;22.20;99.90;;;;;;5111797;28;20203;-61
2022/07/21 10:43:43;;;;;;;9.40;6.07;;;22.20;1.00;;;;;;5111543;28;20207;-61
2022/07/21 10:46:40;;;;;;;9.23;6.10;;;21.90;99.90;;;;;;5110693;28;20622;-63
2022/07/21 10:49:08;;;;;;;7.17;5.53;;;21.90;99.90;;;;;;5111404;28;20227;-62
2022/07/21 10:51:36;;;;;;;7.87;5.40;;;21.90;99.90;;;;;;5110918;28;20260;-62
2022/07/21 10:54:25;;;;;;;8.47;5.73;;;21.90;1.00;;;;;;5111774;28;20204;-63
2022/07/21 10:57:26;;;;;;;6.53;5.43;;;21.90;99.90;;;;;;5111064;28;20199;-63
2022/07/21 11:00:24;;;;;;;9.07;5.57;;;22.00;1.00;;;;;;5107391;28;20265;-61
2022/07/21 11:02:54;;;;;;;9.07;6.83;;;21.90;1.00;;;;;;5111533;28;20203;-63
2022/07/21 11:05:22;;;;;;;11.13;6.20;;;21.80;1.00;;;;;;5111603;28;20567;-63
2022/07/21 11:08:15;;;;;;;12.90;6.03;;;21.60;1.00;;;;;;5111504;28;20231;-65
2022/07/21 11:10:45;;;;;;;11.93;6.53;;;21.30;74.90;;;;;;5111585;28;20234;-66
2022/07/21 11:13:13;;;;;;;7.67;6.57;;;21.00;1.00;;;;;;5111368;28;20204;-67
2022/07/21 11:15:56;;;;;;;8.60;7.00;;;20.90;99.90;;;;;;5110754;28;20674;-66
2022/07/21 11:18:24;;;;;;;12.93;7.47;;;20.80;1.00;;;;;;5110781;28;20295;-63
2022/07/21 11:21:03;;;;;;;13.07;7.40;;;20.80;99.90;;;;;;5111458;28;20231;-63
2022/07/21 11:23:36;;;;;;;10.83;7.40;;;20.60;8.10;;;;;;5114019;28;20207;-64
2022/07/21 11:26:04;;;;;;;11.30;7.67;;;20.60;79.90;;;;;;5114155;28;20264;-64
2022/07/21 11:28:32;;;;;;;11.07;8.37;;;20.60;94.40;;;;;;5115008;28;20208;-64
2022/07/21 11:31:07;;;;;;;10.77;6.90;;;20.60;94.40;;;;;;5114808;28;20625;-62
2022/07/21 11:33:36;;;;;;;10.03;7.93;;;20.50;99.90;;;;;;5114694;27;20200;-62
2022/07/21 11:36:03;;;;;;;10.37;7.80;;;20.60;99.90;;;;;;5114534;27;20200;-63
2022/07/21 11:38:31;;;;;;;14.20;8.17;;;20.50;99.90;;;;;;5114058;28;20735;-61
2022/07/21 11:41:14;;;;;;;14.40;8.47;;;20.50;99.90;;;;;;5114592;28;20264;-60
2022/07/21 11:43:42;;;;;;;13.73;9.07;;;20.40;99.90;;;;;;5114400;28;20207;-62
2022/07/21 11:46:08;;;;;;;11.93;8.63;;;20.40;99.90;;;;;;5114359;28;20207;-62
2022/07/21 11:48:35;;;;;;;10.90;7.90;;;20.30;99.90;;;;;;5114402;28;20200;-62
2022/07/21 11:51:03;;;;;;;14.03;8.57;;;20.30;99.90;;;;;;5114334;28;20199;-62
2022/07/21 11:53:30;;;;;;;10.10;8.23;;;20.20;99.90;;;;;;5114564;27;20253;-61
2022/07/21 11:55:57;;;;;;;14.53;7.20;;;19.90;99.90;;;;;;5113054;28;20264;-63
2022/07/21 11:58:25;;;;;;;9.43;7.70;;;19.80;99.90;;;;;;5114475;28;20210;-62
2022/07/21 12:01:05;;;;;;;10.63;8.20;;;19.80;99.90;;;;;;5113813;28;20262;-60
2022/07/21 12:03:32;;;;;;;10.33;8.17;;;19.70;99.90;;;;;;5114435;28;20294;-59
2022/07/21 12:06:00;;;;;;;10.70;7.60;;;19.70;99.90;;;;;;5113523;27;20204;-60
2022/07/21 12:08:27;;;;;;;9.90;7.40;;;19.70;99.90;;;;;;5113735;28;20224;-60
2022/07/21 12:11:06;;;;;;;9.77;7.43;;;19.70;99.90;;;;;;5115570;28;20212;-63
2022/07/21 12:13:52;;;;;;;10.63;8.57;;;19.60;99.90;;;;;;5114081;28;20290;-60
2022/07/21 12:16:19;;;;;;;8.40;7.53;;;19.60;99.90;;;;;;5113863;28;20290;-60
2022/07/21 12:18:45;;;;;;;10.10;7.17;;;19.60;99.90;;;;;;5113182;28;20219;-61
2022/07/21 12:21:12;;;;;;;7.40;6.20;;;19.60;99.90;;;;;;5113862;27;20207;-62
2022/07/21 12:23:39;;;;;;;7.90;6.60;;;19.60;99.90;;;;;;5114109;28;20218;-64
2022/07/21 12:26:06;;;;;;;7.73;5.93;;;19.60;99.90;;;;;;5112685;28;20214;-63
2022/07/21 12:28:46;;;;;;;9.27;6.57;;;19.60;99.90;;;;;;5113657;28;20228;-62
2022/07/21 12:31:16;;;;;;;9.67;6.33;;;19.70;99.90;;;;;;5113242;28;20207;-62
2022/07/21 12:33:43;;;;;;;9.00;7.53;;;19.70;99.90;;;;;;5113919;28;20254;-64
2022/07/21 12:36:10;;;;;;;10.70;7.90;;;19.80;99.90;;;;;;5113384;28;20203;-62
2022/07/21 12:38:38;;;;;;;9.40;7.00;;;19.70;99.90;;;;;;5113564;27;20199;-61
2022/07/21 12:41:05;;;;;;;10.53;8.23;;;19.60;99.90;;;;;;5113470;28;20260;-65
2022/07/21 12:43:31;;;;;;;9.77;6.50;;;19.60;99.90;;;;;;5113211;28;20204;-63
2022/07/21 12:46:02;;;;;;;8.63;7.30;;;19.60;99.90;;;;;;5112750;28;20210;-63